This is the latest recevied weather packets stored in our database for station/object DH1NAI-6. If no packets are shown the sender has not sent any weather packets the latest 10 day(s).
| Time | Temp. | Humidity | Pressure | Rain* | Wind** | Luminosity | Snow |
|---|---|---|---|---|---|---|---|
| 1787645782 | 15.56° C | 74% | 1012.1 hPa | 0 mm | - | 66 W/m² | - |
| 1787645175 | 15.56° C | 75% | 1012 hPa | 0 mm | - | 64 W/m² | - |
| 1787644566 | 15.56° C | 76% | 1012.1 hPa | 0 mm | - | 72 W/m² | - |
| 1787643942 | 15° C | 78% | 1012.1 hPa | 0 mm | - | 59 W/m² | - |
| 1787643334 | 15° C | 79% | 1012.1 hPa | 0 mm | - | 64 W/m² | - |
| 1787642726 | 14.44° C | 80% | 1012 hPa | 0 mm | - | 69 W/m² | - |
| 1787642118 | 15° C | 79% | 1011.9 hPa | 0 mm | - | 76 W/m² | - |
| 1787641511 | 13.89° C | 81% | 1012 hPa | 0 mm | - | 70 W/m² | - |
| 1787640902 | 13.33° C | 85% | 1012 hPa | 0 mm | - | 55 W/m² | - |
| 1787640278 | 13.33° C | 84% | 1012.2 hPa | 0 mm | - | 48 W/m² | - |
| 1787639671 | 12.78° C | 84% | 1012.1 hPa | 0 mm | - | 37 W/m² | - |
| 1787639062 | 12.78° C | 85% | 1011.9 hPa | 0 mm | - | 27 W/m² | - |
| 1787638438 | 12.78° C | 85% | 1012 hPa | 0 mm | - | 24 W/m² | - |
| 1787637814 | 12.78° C | 86% | 1012 hPa | 0 mm | - | 20 W/m² | - |
| 1787637206 | 11.67° C | 89% | 1011.8 hPa | 0 mm | - | 18 W/m² | - |
| 1787636599 | 11.67° C | 90% | 1011.8 hPa | 0 mm | - | 18 W/m² | - |
| 1787635990 | 11.67° C | 90% | 1011.7 hPa | 0 mm | - | 19 W/m² | - |
| 1787635383 | 11.11° C | 91% | 1011.9 hPa | 0 mm | - | 19 W/m² | - |
| 1787634774 | 10.56° C | 95% | 1011.6 hPa | 0 mm | - | 12 W/m² | - |
| 1787634167 | 10° C | 96% | 1011.8 hPa | 0 mm | - | 9 W/m² | - |
| 1787633552 | 10° C | 96% | 1011.9 hPa | 0 mm | - | 6 W/m² | - |
| 1787632951 | 10° C | 96% | 1011.7 hPa | 0 mm | - | 3 W/m² | - |
| 1787632342 | 10.56° C | 96% | 1011.8 hPa | 0 mm | - | 2 W/m² | - |
| 1787631718 | 10.56° C | 96% | 1012.2 hPa | 0 mm | - | 0 W/m² | - |
| 1787631094 | 10.56° C | 96% | 1012.2 hPa | 0 mm | - | 0 W/m² | - |
* Rain latest hour (hover to see other rain measurements)
** Current wind speed in m/s (hover to see current wind gust speed)